Time,TemperatureF,DewpointF,PressureIn,WindDirection,WindDirectionDegrees,WindSpeedMPH,WindSpeedGustMPH,Humidity,HourlyPrecipIn,Conditions,Clouds,dailyrainin,SoftwareType,DateUTC
2013-03-21 00:02:00,55.0,24.0,29.76,WNW,303,0.0,-999.0,30,-99.99,,,-99.99,,2013-03-21 07:02:00,
2013-03-21 00:12:00,55.0,24.0,29.76,WNW,303,0.0,-999.0,30,-99.99,,,-99.99,,2013-03-21 07:12:00,
2013-03-21 00:21:00,57.0,24.0,29.76,WNW,302,0.0,-999.0,28,-99.99,,,-99.99,,2013-03-21 07:21:00,
2013-03-21 00:32:00,56.0,25.0,29.75,WNW,299,1.0,-999.0,30,-99.99,,,-99.99,,2013-03-21 07:32:00,
2013-03-21 00:42:00,56.0,25.0,29.75,WNW,299,1.0,-999.0,30,-99.99,,,-99.99,,2013-03-21 07:42:00,
2013-03-21 00:52:00,58.0,24.0,29.74,WNW,296,2.0,-999.0,27,-99.99,,,-99.99,,2013-03-21 07:52:00,
2013-03-21 01:01:00,57.0,23.0,29.73,West,281,2.0,-999.0,27,-99.99,,,-99.99,,2013-03-21 08:01:00,
2013-03-21 01:12:00,58.0,23.0,29.73,WNW,283,2.0,-999.0,26,-99.99,,,-99.99,,2013-03-21 08:12:00,
2013-03-21 01:22:00,58.0,23.0,29.73,WNW,283,2.0,-999.0,26,-99.99,,,-99.99,,2013-03-21 08:22:00,
2013-03-21 01:33:00,58.0,23.0,29.73,West,264,1.0,-999.0,26,-99.99,,,-99.99,,2013-03-21 08:33:00,
2013-03-21 01:42:00,58.0,23.0,29.73,West,264,1.0,-999.0,26,-99.99,,,-99.99,,2013-03-21 08:42:00,
2013-03-21 01:51:00,58.0,24.0,29.73,West,264,0.0,-999.0,27,-99.99,,,-99.99,,2013-03-21 08:51:00,
2013-03-21 02:02:00,55.0,24.0,29.72,West,264,0.0,-999.0,30,-99.99,,,-99.99,,2013-03-21 09:02:00,
2013-03-21 02:11:00,55.0,24.0,29.72,West,264,0.0,-999.0,30,-99.99,,,-99.99,,2013-03-21 09:11:00,
2013-03-21 02:21:00,54.0,25.0,29.72,West,264,1.0,-999.0,32,-99.99,,,-99.99,,2013-03-21 09:21:00,
2013-03-21 02:33:00,55.0,25.0,29.72,South,178,1.0,-999.0,31,-99.99,,,-99.99,,2013-03-21 09:33:00,
2013-03-21 02:43:00,55.0,25.0,29.72,South,178,1.0,-999.0,31,-99.99,,,-99.99,,2013-03-21 09:43:00,
2013-03-21 02:53:00,55.0,24.0,29.71,South,180,1.0,-999.0,30,-99.99,,,-99.99,,2013-03-21 09:53:00,
2013-03-21 03:02:00,53.0,25.0,29.70,South,180,0.0,-999.0,34,-99.99,,,-99.99,,2013-03-21 10:02:00,
2013-03-21 03:12:00,53.0,25.0,29.70,South,180,0.0,-999.0,34,-99.99,,,-99.99,,2013-03-21 10:12:00,
2013-03-21 03:22:00,52.0,25.0,29.70,South,180,1.0,-999.0,35,-99.99,,,-99.99,,2013-03-21 10:22:00,
2013-03-21 03:32:00,54.0,25.0,29.69,South,180,1.0,-999.0,32,-99.99,,,-99.99,,2013-03-21 10:32:00,
2013-03-21 03:42:00,54.0,25.0,29.69,South,180,1.0,-999.0,32,-99.99,,,-99.99,,2013-03-21 10:42:00,
2013-03-21 03:52:00,53.0,26.0,29.68,South,180,1.0,-999.0,35,-99.99,,,-99.99,,2013-03-21 10:52:00,
2013-03-21 04:02:00,52.0,25.0,29.67,South,180,0.0,-999.0,35,-99.99,,,-99.99,,2013-03-21 11:02:00,
2013-03-21 04:12:00,52.0,25.0,29.67,South,180,0.0,-999.0,35,-99.99,,,-99.99,,2013-03-21 11:12:00,
2013-03-21 04:22:00,49.0,26.0,29.67,South,180,0.0,-999.0,40,-99.99,,,-99.99,,2013-03-21 11:22:00,
2013-03-21 04:32:00,48.0,27.0,29.67,South,180,0.0,-999.0,44,-99.99,,,-99.99,,2013-03-21 11:32:00,
2013-03-21 04:42:00,48.0,27.0,29.67,South,180,0.0,-999.0,44,-99.99,,,-99.99,,2013-03-21 11:42:00,
2013-03-21 04:52:00,50.0,27.0,29.67,South,180,0.0,-999.0,40,-99.99,,,-99.99,,2013-03-21 11:52:00,
2013-03-21 05:02:00,51.0,26.0,29.67,South,180,0.0,-999.0,37,-99.99,,,-99.99,,2013-03-21 12:02:00,
2013-03-21 05:12:00,51.0,26.0,29.67,South,180,0.0,-999.0,37,-99.99,,,-99.99,,2013-03-21 12:12:00,
2013-03-21 05:21:00,51.0,26.0,29.66,South,180,0.0,-999.0,37,-99.99,,,-99.99,,2013-03-21 12:21:00,
2013-03-21 05:32:00,50.0,25.0,29.67,South,180,0.0,-999.0,38,-99.99,,,-99.99,,2013-03-21 12:32:00,
2013-03-21 05:42:00,50.0,25.0,29.67,South,180,0.0,-999.0,38,-99.99,,,-99.99,,2013-03-21 12:42:00,
2013-03-21 05:52:00,50.0,26.0,29.68,South,180,0.0,-999.0,39,-99.99,,,-99.99,,2013-03-21 12:52:00,
2013-03-21 06:02:00,48.0,25.0,29.68,South,180,0.0,-999.0,41,-99.99,,,-99.99,,2013-03-21 13:02:00,
2013-03-21 06:12:00,48.0,25.0,29.68,South,180,0.0,-999.0,41,-99.99,,,-99.99,,2013-03-21 13:12:00,
2013-03-21 06:22:00,48.0,26.0,29.67,South,180,0.0,-999.0,42,-99.99,,,-99.99,,2013-03-21 13:22:00,
2013-03-21 06:32:00,48.0,25.0,29.67,South,181,0.0,-999.0,40,-99.99,,,-99.99,,2013-03-21 13:32:00,
2013-03-21 06:42:00,48.0,25.0,29.67,South,181,0.0,-999.0,40,-99.99,,,-99.99,,2013-03-21 13:42:00,
2013-03-21 06:52:00,50.0,25.0,29.67,South,181,0.0,-999.0,38,-99.99,,,-99.99,,2013-03-21 13:52:00,
2013-03-21 07:02:00,51.0,24.0,29.68,South,181,0.0,-999.0,35,-99.99,,,-99.99,,2013-03-21 14:02:00,
2013-03-21 07:12:00,54.0,25.0,29.68,South,181,0.0,-999.0,32,-99.99,,,-99.99,,2013-03-21 14:12:00,
2013-03-21 07:21:00,54.0,25.0,29.68,South,181,0.0,-999.0,32,-99.99,,,-99.99,,2013-03-21 14:21:00,
2013-03-21 07:32:00,55.0,25.0,29.68,South,181,0.0,-999.0,31,-99.99,,,-99.99,,2013-03-21 14:32:00,
2013-03-21 07:42:00,55.0,25.0,29.68,South,181,0.0,-999.0,31,-99.99,,,-99.99,,2013-03-21 14:42:00,
2013-03-21 07:51:00,54.0,25.0,29.68,SE,144,2.0,-999.0,32,-99.99,,,-99.99,,2013-03-21 14:51:00,
2013-03-21 08:02:00,54.0,25.0,29.68,SE,144,2.0,-999.0,32,-99.99,,,-99.99,,2013-03-21 15:02:00,
2013-03-21 08:12:00,54.0,25.0,29.68,SE,144,2.0,-999.0,32,-99.99,,,-99.99,,2013-03-21 15:12:00,
2013-03-21 08:21:00,58.0,25.0,29.69,SE,144,1.0,-999.0,28,-99.99,,,-99.99,,2013-03-21 15:21:00,
2013-03-21 08:32:00,59.0,25.0,29.69,ESE,105,2.0,-999.0,27,-99.99,,,-99.99,,2013-03-21 15:32:00,
2013-03-21 08:42:00,59.0,25.0,29.69,ESE,105,2.0,-999.0,27,-99.99,,,-99.99,,2013-03-21 15:42:00,
2013-03-21 08:52:00,59.0,25.0,29.69,ESE,105,2.0,-999.0,27,-99.99,,,-99.99,,2013-03-21 15:52:00,
2013-03-21 09:03:00,59.0,25.0,29.70,NE,52,0.0,-999.0,27,-99.99,,,-99.99,,2013-03-21 16:03:00,
2013-03-21 09:12:00,59.0,25.0,29.70,NE,52,0.0,-999.0,27,-99.99,,,-99.99,,2013-03-21 16:12:00,
2013-03-21 09:22:00,59.0,25.0,29.69,NE,52,0.0,-999.0,27,-99.99,,,-99.99,,2013-03-21 16:22:00,
2013-03-21 09:32:00,61.0,26.0,29.70,East,89,2.0,-999.0,26,-99.99,,,-99.99,,2013-03-21 16:32:00,
2013-03-21 09:42:00,61.0,26.0,29.70,East,89,2.0,-999.0,26,-99.99,,,-99.99,,2013-03-21 16:42:00,
2013-03-21 09:52:00,62.0,26.0,29.69,ESE,111,3.0,-999.0,25,-99.99,,,-99.99,,2013-03-21 16:52:00,
2013-03-21 10:02:00,63.0,25.0,29.70,ESE,111,1.0,-999.0,23,-99.99,,,-99.99,,2013-03-21 17:02:00,
2013-03-21 10:12:00,63.0,25.0,29.70,ESE,111,1.0,-999.0,23,-99.99,,,-99.99,,2013-03-21 17:12:00,
2013-03-21 10:22:00,64.0,25.0,29.70,ESE,111,1.0,-999.0,23,-99.99,,,-99.99,,2013-03-21 17:22:00,
2013-03-21 10:32:00,64.0,25.0,29.69,ESE,111,0.0,-999.0,23,-99.99,,,-99.99,,2013-03-21 17:32:00,
2013-03-21 10:42:00,64.0,25.0,29.69,ESE,111,0.0,-999.0,23,-99.99,,,-99.99,,2013-03-21 17:42:00,
2013-03-21 10:52:00,65.0,24.0,29.69,ESE,110,0.0,-999.0,21,-99.99,,,-99.99,,2013-03-21 17:52:00,
2013-03-21 11:02:00,69.0,19.0,29.69,WNW,283,2.0,-999.0,15,-99.99,,,-99.99,,2013-03-21 18:02:00,
2013-03-21 11:12:00,69.0,19.0,29.69,WNW,283,2.0,-999.0,15,-99.99,,,-99.99,,2013-03-21 18:12:00,
2013-03-21 11:21:00,68.0,19.0,29.68,WNW,300,9.0,-999.0,15,-99.99,,,-99.99,,2013-03-21 18:21:00,
2013-03-21 11:32:00,70.0,19.0,29.69,North,351,5.0,-999.0,14,-99.99,,,-99.99,,2013-03-21 18:32:00,
2013-03-21 11:42:00,70.0,19.0,29.69,North,351,5.0,-999.0,14,-99.99,,,-99.99,,2013-03-21 18:42:00,
2013-03-21 11:52:00,71.0,21.0,29.68,North,360,4.0,-999.0,15,-99.99,,,-99.99,,2013-03-21 18:52:00,
2013-03-21 12:02:00,70.0,17.0,29.68,NW,323,6.0,-999.0,13,-99.99,,,-99.99,,2013-03-21 19:02:00,
2013-03-21 12:12:00,70.0,17.0,29.68,NW,323,6.0,-999.0,13,-99.99,,,-99.99,,2013-03-21 19:12:00,
2013-03-21 12:22:00,71.0,16.0,29.68,NNW,330,7.0,-999.0,12,-99.99,,,-99.99,,2013-03-21 19:22:00,
2013-03-21 12:31:00,71.0,12.0,29.67,NW,321,8.0,-999.0,10,-99.99,,,-99.99,,2013-03-21 19:31:00,
2013-03-21 12:42:00,71.0,12.0,29.67,NW,321,8.0,-999.0,10,-99.99,,,-99.99,,2013-03-21 19:42:00,
2013-03-21 12:52:00,72.0,12.0,29.67,WNW,300,6.0,-999.0,10,-99.99,,,-99.99,,2013-03-21 19:52:00,
2013-03-21 13:02:00,72.0,12.0,29.66,WSW,239,9.0,-999.0,10,-99.99,,,-99.99,,2013-03-21 20:02:00,
2013-03-21 13:12:00,72.0,12.0,29.66,WSW,239,9.0,-999.0,10,-99.99,,,-99.99,,2013-03-21 20:12:00,
2013-03-21 13:22:00,73.0,11.0,29.66,NW,324,8.0,-999.0,9,-99.99,,,-99.99,,2013-03-21 20:22:00,
2013-03-21 13:32:00,73.0,11.0,29.66,NW,324,8.0,-999.0,9,-99.99,,,-99.99,,2013-03-21 20:32:00,
2013-03-21 13:42:00,73.0,11.0,29.66,NW,324,8.0,-999.0,9,-99.99,,,-99.99,,2013-03-21 20:42:00,
2013-03-21 13:52:00,72.0,10.0,29.65,WSW,257,8.0,-999.0,9,-99.99,,,-99.99,,2013-03-21 20:52:00,
2013-03-21 14:02:00,73.0,13.0,29.63,WNW,291,9.0,-999.0,10,-99.99,,,-99.99,,2013-03-21 21:02:00,
2013-03-21 14:12:00,73.0,13.0,29.63,WNW,291,9.0,-999.0,10,-99.99,,,-99.99,,2013-03-21 21:12:00,
2013-03-21 14:21:00,73.0,13.0,29.64,NW,323,10.0,-999.0,10,-99.99,,,-99.99,,2013-03-21 21:21:00,
2013-03-21 14:32:00,72.0,15.0,29.64,WNW,285,10.0,-999.0,11,-99.99,,,-99.99,,2013-03-21 21:32:00,
2013-03-21 14:43:00,72.0,15.0,29.64,WNW,285,10.0,-999.0,11,-99.99,,,-99.99,,2013-03-21 21:43:00,
2013-03-21 14:52:00,72.0,17.0,29.63,West,259,5.0,-999.0,12,-99.99,,,-99.99,,2013-03-21 21:52:00,
2013-03-21 15:02:00,72.0,15.0,29.63,West,275,7.0,-999.0,11,-99.99,,,-99.99,,2013-03-21 22:02:00,
2013-03-21 15:12:00,72.0,15.0,29.63,West,275,7.0,-999.0,11,-99.99,,,-99.99,,2013-03-21 22:12:00,
2013-03-21 15:22:00,72.0,12.0,29.63,WNW,298,10.0,-999.0,10,-99.99,,,-99.99,,2013-03-21 22:22:00,
2013-03-21 15:33:00,70.0,11.0,29.62,West,279,10.0,-999.0,10,-99.99,,,-99.99,,2013-03-21 22:33:00,
2013-03-21 15:42:00,70.0,11.0,29.62,West,279,10.0,-999.0,10,-99.99,,,-99.99,,2013-03-21 22:42:00,
2013-03-21 15:52:00,70.0,13.0,29.63,SW,232,8.0,-999.0,11,-99.99,,,-99.99,,2013-03-21 22:52:00,
2013-03-21 16:02:00,70.0,11.0,29.63,WSW,257,6.0,-999.0,10,-99.99,,,-99.99,,2013-03-21 23:02:00,
2013-03-21 16:12:00,70.0,11.0,29.63,WSW,257,6.0,-999.0,10,-99.99,,,-99.99,,2013-03-21 23:12:00,
2013-03-21 16:21:00,69.0,12.0,29.62,NW,310,9.0,-999.0,11,-99.99,,,-99.99,,2013-03-21 23:21:00,
2013-03-21 16:32:00,69.0,12.0,29.62,WNW,303,8.0,-999.0,11,-99.99,,,-99.99,,2013-03-21 23:32:00,
2013-03-21 16:42:00,69.0,12.0,29.62,WNW,303,8.0,-999.0,11,-99.99,,,-99.99,,2013-03-21 23:42:00,
2013-03-21 16:52:00,68.0,12.0,29.63,WNW,286,7.0,-999.0,11,-99.99,,,-99.99,,2013-03-21 23:52:00,
2013-03-21 17:02:00,68.0,14.0,29.63,West,278,7.0,-999.0,12,-99.99,,,-99.99,,2013-03-22 00:02:00,
2013-03-21 17:12:00,68.0,14.0,29.63,West,278,7.0,-999.0,12,-99.99,,,-99.99,,2013-03-22 00:12:00,
2013-03-21 17:22:00,67.0,16.0,29.63,NW,313,7.0,-999.0,14,-99.99,,,-99.99,,2013-03-22 00:22:00,
2013-03-21 17:31:00,67.0,18.0,29.62,WNW,283,5.0,-999.0,15,-99.99,,,-99.99,,2013-03-22 00:31:00,
2013-03-21 17:42:00,67.0,18.0,29.62,WNW,283,5.0,-999.0,15,-99.99,,,-99.99,,2013-03-22 00:42:00,
2013-03-21 17:52:00,67.0,19.0,29.62,NW,314,3.0,-999.0,16,-99.99,,,-99.99,,2013-03-22 00:52:00,
2013-03-21 18:02:00,66.0,20.0,29.64,West,279,2.0,-999.0,17,-99.99,,,-99.99,,2013-03-22 01:02:00,
2013-03-21 18:12:00,66.0,20.0,29.64,West,279,2.0,-999.0,17,-99.99,,,-99.99,,2013-03-22 01:12:00,
2013-03-21 18:21:00,66.0,20.0,29.63,NNW,336,2.0,-999.0,17,-99.99,,,-99.99,,2013-03-22 01:21:00,
2013-03-21 18:32:00,66.0,20.0,29.62,NNW,337,1.0,-999.0,17,-99.99,,,-99.99,,2013-03-22 01:32:00,
2013-03-21 18:42:00,66.0,20.0,29.62,NNW,337,1.0,-999.0,17,-99.99,,,-99.99,,2013-03-22 01:42:00,
2013-03-21 18:52:00,65.0,18.0,29.63,NNW,327,1.0,-999.0,16,-99.99,,,-99.99,,2013-03-22 01:52:00,
2013-03-21 19:12:00,64.0,18.0,29.64,NW,315,3.0,-999.0,17,-99.99,,,-99.99,,2013-03-22 02:12:00,
2013-03-21 19:22:00,63.0,18.0,29.64,NW,317,1.0,-999.0,17,-99.99,,,-99.99,,2013-03-22 02:22:00,
2013-03-21 19:32:00,62.0,19.0,29.64,NW,317,0.0,-999.0,19,-99.99,,,-99.99,,2013-03-22 02:32:00,
2013-03-21 19:42:00,62.0,19.0,29.64,NW,317,0.0,-999.0,19,-99.99,,,-99.99,,2013-03-22 02:42:00,
2013-03-21 19:51:00,60.0,21.0,29.64,NW,317,0.0,-999.0,22,-99.99,,,-99.99,,2013-03-22 02:51:00,
2013-03-21 20:02:00,62.0,19.0,29.64,NW,317,0.0,-999.0,19,-99.99,,,-99.99,,2013-03-22 03:02:00,
2013-03-21 20:12:00,62.0,19.0,29.64,NW,317,0.0,-999.0,19,-99.99,,,-99.99,,2013-03-22 03:12:00,
2013-03-21 20:21:00,61.0,21.0,29.65,NW,317,0.0,-999.0,21,-99.99,,,-99.99,,2013-03-22 03:21:00,
2013-03-21 20:33:00,59.0,22.0,29.64,NW,317,0.0,-999.0,24,-99.99,,,-99.99,,2013-03-22 03:33:00,
2013-03-21 20:42:00,59.0,22.0,29.64,NW,317,0.0,-999.0,24,-99.99,,,-99.99,,2013-03-22 03:42:00,
2013-03-21 20:52:00,57.0,22.0,29.64,NW,317,0.0,-999.0,26,-99.99,,,-99.99,,2013-03-22 03:52:00,
2013-03-21 21:03:00,58.0,22.0,29.64,NW,317,0.0,-999.0,25,-99.99,,,-99.99,,2013-03-22 04:03:00,
2013-03-21 21:12:00,58.0,22.0,29.64,NW,317,0.0,-999.0,25,-99.99,,,-99.99,,2013-03-22 04:12:00,
2013-03-21 21:22:00,57.0,20.0,29.65,SW,234,1.0,-999.0,23,-99.99,,,-99.99,,2013-03-22 04:22:00,
2013-03-21 21:32:00,58.0,20.0,29.65,SW,234,0.0,-999.0,23,-99.99,,,-99.99,,2013-03-22 04:32:00,
2013-03-21 21:42:00,58.0,20.0,29.65,SW,234,0.0,-999.0,23,-99.99,,,-99.99,,2013-03-22 04:42:00,
2013-03-21 21:52:00,56.0,23.0,29.65,SW,234,0.0,-999.0,27,-99.99,,,-99.99,,2013-03-22 04:52:00,
2013-03-21 22:02:00,55.0,23.0,29.65,SW,234,1.0,-999.0,28,-99.99,,,-99.99,,2013-03-22 05:02:00,
2013-03-21 22:12:00,55.0,23.0,29.65,SW,234,1.0,-999.0,28,-99.99,,,-99.99,,2013-03-22 05:12:00,
2013-03-21 22:22:00,55.0,22.0,29.65,SW,234,0.0,-999.0,27,-99.99,,,-99.99,,2013-03-22 05:22:00,
2013-03-21 22:32:00,56.0,21.0,29.65,SW,235,0.0,-999.0,25,-99.99,,,-99.99,,2013-03-22 05:32:00,
2013-03-21 22:42:00,56.0,21.0,29.65,SW,235,0.0,-999.0,25,-99.99,,,-99.99,,2013-03-22 05:42:00,
2013-03-21 22:52:00,56.0,23.0,29.66,SW,235,0.0,-999.0,27,-99.99,,,-99.99,,2013-03-22 05:52:00,
2013-03-21 23:02:00,57.0,22.0,29.65,SW,235,0.0,-999.0,25,-99.99,,,-99.99,,2013-03-22 06:02:00,
2013-03-21 23:12:00,57.0,22.0,29.65,SW,235,0.0,-999.0,25,-99.99,,,-99.99,,2013-03-22 06:12:00,
2013-03-21 23:21:00,57.0,22.0,29.65,SW,235,0.0,-999.0,25,-99.99,,,-99.99,,2013-03-22 06:21:00,
2013-03-21 23:32:00,57.0,22.0,29.65,SW,236,0.0,-999.0,26,-99.99,,,-99.99,,2013-03-22 06:32:00,
2013-03-21 23:42:00,57.0,22.0,29.65,SW,236,0.0,-999.0,26,-99.99,,,-99.99,,2013-03-22 06:42:00,
2013-03-21 23:51:00,59.0,22.0,29.64,WSW,248,0.0,-999.0,24,-99.99,,,-99.99,,2013-03-22 06:51:00,